createdAt,value
2018-08-20T00:01:44.922Z,94.10
2018-08-20T00:04:13.612Z,93.90
2018-08-20T00:06:52.490Z,94.10
2018-08-20T00:09:21.971Z,94.30
2018-08-20T00:11:50.198Z,94.60
2018-08-20T00:14:20.900Z,94.70
2018-08-20T00:16:49.294Z,94.50
2018-08-20T00:19:18.029Z,94.80
2018-08-20T00:21:46.337Z,95.20
2018-08-20T00:24:14.596Z,95.20
2018-08-20T00:26:42.887Z,95.30
2018-08-20T00:29:11.153Z,95.40
2018-08-20T00:31:39.539Z,95.50
2018-08-20T00:34:07.861Z,95.70
2018-08-20T00:36:36.373Z,95.90
2018-08-20T00:39:06.841Z,96.30
2018-08-20T00:41:35.117Z,96.20
2018-08-20T00:44:07.582Z,96.10
2018-08-20T00:46:35.855Z,96.20
2018-08-20T00:49:04.547Z,96.30
2018-08-20T00:51:33.505Z,96.80
2018-08-20T00:54:02.476Z,96.80
2018-08-20T00:56:30.877Z,96.50
2018-08-20T00:58:59.157Z,96.70
2018-08-20T01:01:27.829Z,97.00
2018-08-20T01:03:56.102Z,97.10
2018-08-20T01:06:24.937Z,97.10
2018-08-20T01:08:53.212Z,97.20
2018-08-20T01:11:21.491Z,97.10
2018-08-20T01:13:50.254Z,97.40
2018-08-20T01:16:18.537Z,97.20
2018-08-20T01:18:47.447Z,97.20
2018-08-20T01:21:15.721Z,97.00
2018-08-20T01:23:44.073Z,97.30
2018-08-20T01:26:12.342Z,97.30
2018-08-20T01:28:40.599Z,97.20
2018-08-20T01:31:09.038Z,97.50
2018-08-20T01:33:37.468Z,98.10
2018-08-20T01:36:06.074Z,97.90
2018-08-20T01:38:34.332Z,98.10
2018-08-20T01:41:02.650Z,97.90
2018-08-20T01:43:30.979Z,98.10
2018-08-20T01:45:59.230Z,98.20
2018-08-20T01:48:27.582Z,98.30
2018-08-20T01:50:55.858Z,98.50
2018-08-20T01:53:24.451Z,98.60
2018-08-20T01:55:53.287Z,98.60
2018-08-20T01:58:21.552Z,98.50
2018-08-20T02:00:58.030Z,98.60
2018-08-20T02:03:26.375Z,98.80
2018-08-20T02:05:55.245Z,98.80
2018-08-20T02:08:23.493Z,98.90
2018-08-20T02:10:51.770Z,99.00
2018-08-20T02:13:20.330Z,99.00
2018-08-20T02:15:48.968Z,99.50
2018-08-20T02:18:17.721Z,99.60
2018-08-20T02:20:45.973Z,99.20
2018-08-20T02:23:14.226Z,99.40
2018-08-20T02:25:42.637Z,99.90
2018-08-20T02:28:10.912Z,99.90
2018-08-20T02:30:39.573Z,99.40
2018-08-20T02:33:08.961Z,99.30
2018-08-20T02:35:37.232Z,99.10
2018-08-20T02:38:05.522Z,99.60
2018-08-20T02:40:34.122Z,99.70
2018-08-20T02:43:02.377Z,99.60
2018-08-20T02:45:30.730Z,99.70
2018-08-20T02:47:59.001Z,99.90
2018-08-20T02:50:27.209Z,99.90
2018-08-20T02:52:56.229Z,99.90
2018-08-20T02:55:24.518Z,99.90
2018-08-20T02:57:52.797Z,99.90
2018-08-20T03:00:21.138Z,99.90
2018-08-20T03:02:50.002Z,99.90
2018-08-20T03:05:18.712Z,99.90
2018-08-20T03:07:47.122Z,99.90
2018-08-20T03:10:15.409Z,99.90
2018-08-20T03:12:43.750Z,99.90
2018-08-20T03:15:12.490Z,99.90
2018-08-20T03:17:41.477Z,99.90
2018-08-20T03:20:10.051Z,99.90
2018-08-20T03:22:38.329Z,99.90
2018-08-20T03:25:06.998Z,99.90
2018-08-20T03:27:35.454Z,99.90
2018-08-20T03:30:05.291Z,99.90
2018-08-20T03:32:34.119Z,99.90
2018-08-20T03:35:02.364Z,99.90
2018-08-20T03:37:30.621Z,99.90
2018-08-20T03:39:58.906Z,99.90
2018-08-20T03:42:27.181Z,99.90
2018-08-20T03:44:55.526Z,99.90
2018-08-20T03:47:23.784Z,99.90
2018-08-20T03:49:52.105Z,99.90
2018-08-20T03:52:20.365Z,99.90
2018-08-20T03:54:49.338Z,99.90
2018-08-20T03:57:17.589Z,99.90
2018-08-20T03:59:45.839Z,99.90
2018-08-20T04:02:14.720Z,99.90
2018-08-20T04:04:44.064Z,99.90
2018-08-20T04:07:12.719Z,99.90
2018-08-20T04:09:40.984Z,99.90
2018-08-20T04:12:09.286Z,99.90
2018-08-20T04:14:37.840Z,99.90
2018-08-20T04:17:06.085Z,99.90
2018-08-20T04:19:34.939Z,99.90
2018-08-20T04:22:03.682Z,99.90
2018-08-20T04:24:31.947Z,99.90
2018-08-20T04:27:00.331Z,99.90
2018-08-20T04:29:35.246Z,99.90
2018-08-20T04:32:03.538Z,99.90
2018-08-20T04:34:31.885Z,99.90
2018-08-20T04:37:00.348Z,99.90
2018-08-20T04:39:28.594Z,99.90
2018-08-20T04:41:56.914Z,99.90
2018-08-20T04:44:26.230Z,99.90
2018-08-20T04:46:54.537Z,99.90
2018-08-20T04:49:22.802Z,99.90
2018-08-20T04:51:51.116Z,99.90
2018-08-20T04:54:19.862Z,99.90
2018-08-20T04:56:48.134Z,99.90
2018-08-20T04:59:17.078Z,99.90
2018-08-20T05:01:45.722Z,99.90
2018-08-20T05:04:14.001Z,99.90
2018-08-20T05:06:42.966Z,99.90
2018-08-20T05:09:11.951Z,99.90
2018-08-20T05:11:40.225Z,99.90
2018-08-20T05:14:08.742Z,99.90
2018-08-20T05:16:37.026Z,99.90
2018-08-20T05:19:06.004Z,99.90
2018-08-20T05:21:34.278Z,99.90
2018-08-20T05:24:02.542Z,99.90
2018-08-20T05:26:30.836Z,99.90
2018-08-20T05:28:59.717Z,99.90
2018-08-20T05:31:28.037Z,99.90
2018-08-20T05:33:56.406Z,99.90
2018-08-20T05:36:24.741Z,99.90
2018-08-20T05:38:52.980Z,99.90
2018-08-20T05:41:21.347Z,99.90
2018-08-20T05:43:49.636Z,99.90
2018-08-20T05:46:17.886Z,99.90
2018-08-20T05:48:46.166Z,99.90
2018-08-20T05:51:14.620Z,99.90
2018-08-20T05:53:43.434Z,99.80
2018-08-20T05:56:12.322Z,99.20
2018-08-20T05:58:41.126Z,99.10
2018-08-20T06:01:10.185Z,99.20
2018-08-20T06:03:38.446Z,98.70
2018-08-20T06:06:07.346Z,98.50
2018-08-20T06:08:35.630Z,97.50
2018-08-20T06:11:03.906Z,97.10
2018-08-20T06:13:37.861Z,96.50
2018-08-20T06:16:06.451Z,94.80
2018-08-20T06:18:35.085Z,94.80
2018-08-20T06:21:03.386Z,94.20
2018-08-20T06:23:31.649Z,93.60
2018-08-20T06:26:00.045Z,94.00
2018-08-20T06:28:29.185Z,93.50
2018-08-20T06:30:57.415Z,93.20
2018-08-20T06:33:25.666Z,91.40
2018-08-20T06:35:53.961Z,91.40
2018-08-20T06:38:22.278Z,90.50
2018-08-20T06:40:50.752Z,90.00
2018-08-20T06:43:19.015Z,90.00
2018-08-20T06:45:47.714Z,90.10
2018-08-20T06:48:15.979Z,88.20
2018-08-20T06:50:44.231Z,87.40
2018-08-20T06:53:12.900Z,88.10
2018-08-20T06:55:42.053Z,87.70
2018-08-20T06:58:10.351Z,86.90
2018-08-20T07:00:38.604Z,85.90
2018-08-20T07:03:07.462Z,84.70
2018-08-20T07:05:36.040Z,83.80
2018-08-20T07:08:04.323Z,81.70
2018-08-20T07:10:37.976Z,82.20
2018-08-20T07:13:17.577Z,80.40
2018-08-20T07:15:46.535Z,76.80
2018-08-20T07:18:15.562Z,76.30
2018-08-20T07:20:43.835Z,74.90
2018-08-20T07:23:12.098Z,70.30
2018-08-20T07:25:40.885Z,69.70
2018-08-20T07:28:09.165Z,67.60
2018-08-20T07:30:37.506Z,66.40
2018-08-20T07:33:05.836Z,60.70
2018-08-20T07:35:34.118Z,61.30
2018-08-20T07:38:02.455Z,58.90
2018-08-20T07:40:30.767Z,54.60
2018-08-20T07:42:59.039Z,55.50
2018-08-20T07:45:27.824Z,55.20
2018-08-20T07:47:56.078Z,52.20
2018-08-20T07:50:31.588Z,52.30
2018-08-20T07:53:00.570Z,50.40
2018-08-20T07:55:28.872Z,49.10
2018-08-20T07:57:57.178Z,47.80
2018-08-20T08:00:25.458Z,45.60
2018-08-20T08:02:54.026Z,44.50
2018-08-20T08:05:22.646Z,43.90
2018-08-20T08:07:50.962Z,41.00
2018-08-20T08:10:19.202Z,39.70
2018-08-20T08:12:47.500Z,39.70
2018-08-20T08:15:16.446Z,39.40
2018-08-20T08:17:45.811Z,38.50
2018-08-20T08:20:15.782Z,38.50
2018-08-20T08:22:45.166Z,37.30
2018-08-20T08:25:13.392Z,38.20
2018-08-20T08:27:41.616Z,37.50
2018-08-20T08:30:12.239Z,37.70
2018-08-20T08:32:40.526Z,36.40
2018-08-20T08:35:09.329Z,36.30
2018-08-20T08:37:37.793Z,36.20
2018-08-20T08:40:06.316Z,34.10
2018-08-20T08:42:34.812Z,34.60
2018-08-20T08:45:03.638Z,33.80
2018-08-20T08:47:31.871Z,33.50
2018-08-20T08:50:00.125Z,33.80
2018-08-20T08:52:28.373Z,33.40
2018-08-20T08:54:57.160Z,32.60
2018-08-20T08:57:25.381Z,32.00
2018-08-20T08:59:53.642Z,33.10
2018-08-20T09:02:22.823Z,33.10
2018-08-20T09:04:51.806Z,30.70
2018-08-20T09:07:20.078Z,32.10
2018-08-20T09:09:48.364Z,34.30
2018-08-20T09:12:16.703Z,35.10
2018-08-20T09:14:45.411Z,34.20
2018-08-20T09:17:13.686Z,33.80
2018-08-20T09:19:42.322Z,32.30
2018-08-20T09:22:11.119Z,31.00
2018-08-20T09:24:39.589Z,31.30
2018-08-20T09:27:07.821Z,30.80
2018-08-20T09:29:36.208Z,29.80
2018-08-20T09:32:04.466Z,29.30
2018-08-20T09:34:32.907Z,29.10
2018-08-20T09:37:01.888Z,29.20
2018-08-20T09:39:30.690Z,28.60
2018-08-20T09:41:59.011Z,28.50
2018-08-20T09:44:27.269Z,28.40
2018-08-20T09:46:55.569Z,30.30
2018-08-20T09:49:23.815Z,28.90
2018-08-20T09:51:52.142Z,29.00
2018-08-20T09:54:21.087Z,28.60
2018-08-20T09:56:49.373Z,29.40
2018-08-20T09:59:17.615Z,29.80
2018-08-20T10:01:46.444Z,29.30
2018-08-20T10:04:14.682Z,29.10
2018-08-20T10:06:43.281Z,29.40
2018-08-20T10:09:11.510Z,29.70
2018-08-20T10:11:39.799Z,28.80
2018-08-20T10:14:08.558Z,29.30
2018-08-20T10:16:36.850Z,28.90
2018-08-20T10:19:06.515Z,28.20
2018-08-20T10:21:35.298Z,28.00
2018-08-20T10:24:03.932Z,28.00
2018-08-20T10:26:32.202Z,27.80
2018-08-20T10:29:00.517Z,28.10
2018-08-20T10:31:29.472Z,27.40
2018-08-20T10:33:58.829Z,27.50
2018-08-20T10:36:27.443Z,27.50
2018-08-20T10:38:56.128Z,27.50
2018-08-20T10:41:24.590Z,26.90
2018-08-20T10:43:53.254Z,27.30
2018-08-20T10:46:26.033Z,27.20
2018-08-20T10:48:55.678Z,27.50
2018-08-20T10:51:24.533Z,26.60
2018-08-20T10:53:53.457Z,27.40
2018-08-20T10:56:22.322Z,27.00
2018-08-20T10:58:50.704Z,28.40
2018-08-20T11:01:19.221Z,29.10
2018-08-20T11:03:48.241Z,30.00
2018-08-20T11:06:17.409Z,27.70
2018-08-20T11:08:45.680Z,28.00
2018-08-20T11:11:13.978Z,28.10
2018-08-20T11:13:42.851Z,27.70
2018-08-20T11:16:11.362Z,26.70
2018-08-20T11:18:45.992Z,27.60
2018-08-20T11:21:14.240Z,27.80
2018-08-20T11:23:43.205Z,26.70
2018-08-20T11:26:11.540Z,26.40
2018-08-20T11:28:39.778Z,26.80
2018-08-20T11:31:08.045Z,25.80
2018-08-20T11:33:36.298Z,26.10
2018-08-20T11:36:04.617Z,25.50
2018-08-20T11:38:32.890Z,26.60
2018-08-20T11:41:01.134Z,27.00
2018-08-20T11:44:53.894Z,26.40
2018-08-20T11:47:22.242Z,27.40
2018-08-20T11:49:50.538Z,27.50
2018-08-20T11:52:18.928Z,27.80
2018-08-20T11:54:48.109Z,26.90
2018-08-20T11:57:16.374Z,27.90
2018-08-20T11:59:44.612Z,29.40
2018-08-20T12:02:12.914Z,29.60
2018-08-20T12:04:41.830Z,30.60
2018-08-20T12:07:10.231Z,31.40
2018-08-20T12:09:38.486Z,30.10
2018-08-20T12:12:07.302Z,32.00
2018-08-20T12:14:36.171Z,31.10
2018-08-20T12:17:05.023Z,30.30
2018-08-20T12:19:33.613Z,30.40
2018-08-20T12:23:26.476Z,30.10
2018-08-20T12:25:54.781Z,30.50
2018-08-20T12:28:23.072Z,30.70
2018-08-20T12:30:51.492Z,30.60
2018-08-20T12:33:19.866Z,31.60
2018-08-20T12:35:48.194Z,30.90
2018-08-20T12:38:16.936Z,30.80
2018-08-20T12:40:45.226Z,31.20
2018-08-20T12:43:13.537Z,30.70
2018-08-20T12:45:41.784Z,31.00
2018-08-20T12:48:10.131Z,31.10
2018-08-20T12:50:38.374Z,31.20
2018-08-20T12:53:07.502Z,29.70
2018-08-20T12:55:35.980Z,30.20
2018-08-20T12:58:04.267Z,30.00
2018-08-20T13:00:32.749Z,29.80
2018-08-20T13:03:01.002Z,30.00
2018-08-20T13:05:29.870Z,29.80
2018-08-20T13:07:58.654Z,29.60
2018-08-20T13:10:27.497Z,30.00
2018-08-20T13:12:55.776Z,29.00
2018-08-20T13:15:24.693Z,29.40
2018-08-20T13:17:52.938Z,29.80
2018-08-20T13:20:21.757Z,28.90
2018-08-20T13:22:50.020Z,29.10
2018-08-20T13:25:18.293Z,29.50
2018-08-20T13:27:46.575Z,29.50
2018-08-20T13:30:14.812Z,30.00
2018-08-20T13:32:43.174Z,29.40
2018-08-20T13:35:11.462Z,29.50
2018-08-20T13:37:39.989Z,29.40
2018-08-20T13:40:08.267Z,29.20
2018-08-20T13:42:36.551Z,30.60
2018-08-20T13:45:04.982Z,30.10
2018-08-20T13:47:33.325Z,30.60
2018-08-20T13:50:05.852Z,30.30
2018-08-20T13:52:34.622Z,30.60
2018-08-20T13:55:03.881Z,31.90
2018-08-20T13:57:36.354Z,32.50
2018-08-20T14:00:04.783Z,32.70
2018-08-20T14:02:33.507Z,32.30
2018-08-20T14:05:02.217Z,31.90
2018-08-20T14:07:30.723Z,32.00
2018-08-20T14:09:58.973Z,32.30
2018-08-20T14:12:27.766Z,32.30
2018-08-20T14:14:56.541Z,33.80
2018-08-20T14:17:24.845Z,33.40
2018-08-20T14:19:54.103Z,32.80
2018-08-20T14:22:22.370Z,32.40
2018-08-20T14:24:50.618Z,33.00
2018-08-20T14:27:19.054Z,33.40
2018-08-20T14:29:47.349Z,31.50
2018-08-20T14:32:15.658Z,32.70
2018-08-20T14:34:43.929Z,33.30
2018-08-20T14:37:12.190Z,32.60
2018-08-20T14:39:40.471Z,32.90
2018-08-20T14:42:08.821Z,33.50
2018-08-20T14:44:37.172Z,33.40
2018-08-20T14:47:05.485Z,33.90
2018-08-20T14:49:33.773Z,34.30
2018-08-20T14:52:08.578Z,33.20
2018-08-20T14:54:37.510Z,33.60
2018-08-20T14:57:05.954Z,33.70
2018-08-20T14:59:34.230Z,33.70
2018-08-20T15:02:02.918Z,34.30
2018-08-20T15:04:34.195Z,34.90
2018-08-20T15:07:04.839Z,34.30
2018-08-20T15:09:33.137Z,33.10
2018-08-20T15:12:02.241Z,33.90
2018-08-20T15:14:30.969Z,35.00
2018-08-20T15:16:59.285Z,35.80
2018-08-20T15:19:27.980Z,36.70
2018-08-20T15:21:56.281Z,35.00
2018-08-20T15:24:24.583Z,35.60
2018-08-20T15:26:52.874Z,36.20
2018-08-20T15:29:21.258Z,35.60
2018-08-20T15:31:49.612Z,36.60
2018-08-20T15:34:17.974Z,37.00
2018-08-20T15:36:46.350Z,37.40
2018-08-20T15:39:14.688Z,37.90
2018-08-20T15:41:43.054Z,37.40
2018-08-20T15:44:17.807Z,37.50
2018-08-20T15:46:46.090Z,36.80
2018-08-20T15:49:14.410Z,37.30
2018-08-20T15:51:42.674Z,37.90
2018-08-20T15:54:11.894Z,37.40
2018-08-20T15:56:40.155Z,37.70
2018-08-20T15:59:08.421Z,37.30
2018-08-20T16:01:37.297Z,37.30
2018-08-20T16:04:05.566Z,38.60
2018-08-20T16:06:34.301Z,37.60
2018-08-20T16:09:04.070Z,38.30
2018-08-20T16:11:32.554Z,39.60
2018-08-20T16:14:01.387Z,39.30
2018-08-20T16:16:29.654Z,39.20
2018-08-20T16:18:58.242Z,39.20
2018-08-20T16:21:26.501Z,39.10
2018-08-20T16:23:55.013Z,38.80
2018-08-20T16:26:23.302Z,39.90
2018-08-20T16:28:52.578Z,39.20
2018-08-20T16:31:21.029Z,39.50
2018-08-20T16:33:49.366Z,40.30
2018-08-20T16:36:17.629Z,40.30
2018-08-20T16:38:46.570Z,40.70
2018-08-20T16:41:14.858Z,40.00
2018-08-20T16:43:43.247Z,40.80
2018-08-20T16:46:11.562Z,40.80
2018-08-20T16:48:40.246Z,41.00
2018-08-20T16:51:09.533Z,41.40
2018-08-20T16:53:38.414Z,41.70
2018-08-20T16:56:07.024Z,41.60
2018-08-20T16:58:35.398Z,41.90
2018-08-20T17:01:12.603Z,41.90
2018-08-20T17:03:40.954Z,42.20
2018-08-20T17:06:09.434Z,42.60
2018-08-20T17:08:38.692Z,42.70
2018-08-20T17:11:06.966Z,43.00
2018-08-20T17:13:39.136Z,42.90
2018-08-20T17:16:09.809Z,43.10
2018-08-20T17:18:38.581Z,43.80
2018-08-20T17:21:06.936Z,44.10
2018-08-20T17:23:36.430Z,42.80
2018-08-20T17:26:05.149Z,43.40
2018-08-20T17:28:33.430Z,43.60
2018-08-20T17:31:03.790Z,43.40
2018-08-20T17:33:33.493Z,44.10
2018-08-20T17:36:01.909Z,43.40
2018-08-20T17:38:30.192Z,43.90
2018-08-20T17:40:58.491Z,43.90
2018-08-20T17:43:26.869Z,44.20
2018-08-20T17:45:56.221Z,44.10
2018-08-20T17:48:30.594Z,44.10
2018-08-20T17:50:59.045Z,44.80
2018-08-20T17:53:40.351Z,44.70
2018-08-20T17:56:09.169Z,45.20
2018-08-20T17:58:37.488Z,45.80
2018-08-20T18:01:05.835Z,45.80
2018-08-20T18:03:35.343Z,45.50
2018-08-20T18:06:05.739Z,45.80
2018-08-20T18:08:35.274Z,46.00
2018-08-20T18:11:04.130Z,46.70
2018-08-20T18:13:45.405Z,46.80
2018-08-20T18:16:22.052Z,47.10
2018-08-20T18:18:51.967Z,47.00
2018-08-20T18:21:20.411Z,47.60
2018-08-20T18:23:49.144Z,47.90
2018-08-20T18:26:17.482Z,48.20
2018-08-20T18:28:51.877Z,48.50
2018-08-20T18:31:27.810Z,48.20
2018-08-20T18:33:56.246Z,48.70
2018-08-20T18:36:27.495Z,48.80
2018-08-20T18:38:58.519Z,49.30
2018-08-20T18:41:50.278Z,49.50
2018-08-20T18:44:18.850Z,49.50
2018-08-20T18:46:47.308Z,49.80
2018-08-20T18:49:15.766Z,50.00
2018-08-20T18:51:44.194Z,50.10
2018-08-20T18:54:12.947Z,50.40
2018-08-20T18:56:42.270Z,51.00
2018-08-20T18:59:10.540Z,51.20
2018-08-20T19:01:38.867Z,51.10
2018-08-20T19:04:07.522Z,51.20
2018-08-20T19:06:36.368Z,51.40
2018-08-20T19:09:05.742Z,51.90
2018-08-20T19:11:34.642Z,52.10
2018-08-20T19:14:08.403Z,52.00
2018-08-20T19:16:37.726Z,52.70
2018-08-20T19:19:07.450Z,52.30
2018-08-20T19:21:37.701Z,53.20
2018-08-20T19:24:07.203Z,53.40
2018-08-20T19:26:35.659Z,53.90
2018-08-20T19:29:28.307Z,53.80
2018-08-20T19:31:56.694Z,53.60
2018-08-20T19:34:25.110Z,54.40
2018-08-20T19:36:53.440Z,54.20
2018-08-20T19:39:21.786Z,54.40
2018-08-20T19:41:50.061Z,55.00
2018-08-20T19:44:18.443Z,55.30
2018-08-20T19:46:47.119Z,55.80
2018-08-20T19:49:15.949Z,55.80
2018-08-20T19:51:45.249Z,56.20
2018-08-20T19:54:15.593Z,56.50
2018-08-20T19:56:44.380Z,57.10
2018-08-20T19:59:13.208Z,57.60
2018-08-20T20:01:41.558Z,57.60
2018-08-20T20:04:14.263Z,57.60
2018-08-20T20:06:43.477Z,58.30
2018-08-20T20:09:17.463Z,58.00
2018-08-20T20:11:48.577Z,58.50
2018-08-20T20:14:17.361Z,59.20
2018-08-20T20:16:51.476Z,59.40
2018-08-20T20:19:20.379Z,59.70
2018-08-20T20:21:48.733Z,59.80
2018-08-20T20:24:17.378Z,61.00
2018-08-20T20:26:45.677Z,60.90
2018-08-20T20:29:14.116Z,61.30
2018-08-20T20:31:43.043Z,61.50
2018-08-20T20:34:11.356Z,61.60
2018-08-20T20:36:39.730Z,61.90
2018-08-20T20:39:10.071Z,62.30
2018-08-20T20:41:38.937Z,63.20
2018-08-20T20:44:07.742Z,63.30
2018-08-20T20:46:36.189Z,63.00
2018-08-20T20:49:04.594Z,64.90
2018-08-20T20:51:33.577Z,64.20
2018-08-20T20:54:02.686Z,64.80
2018-08-20T20:56:30.973Z,65.40
2018-08-20T20:58:59.278Z,65.40
2018-08-20T21:01:28.013Z,65.50
2018-08-20T21:03:56.303Z,65.40
2018-08-20T21:06:25.280Z,66.30
2018-08-20T21:08:54.066Z,67.00
2018-08-20T21:11:23.041Z,66.60
2018-08-20T21:13:51.707Z,67.60
2018-08-20T21:16:22.795Z,67.70
2018-08-20T21:18:52.975Z,68.50
2018-08-20T21:21:21.766Z,68.60
2018-08-20T21:23:50.351Z,68.90
2018-08-20T21:26:18.740Z,68.80
2018-08-20T21:28:48.791Z,68.70
2018-08-20T21:31:18.223Z,68.90
2018-08-20T21:33:46.811Z,69.80
2018-08-20T21:36:15.530Z,69.70
2018-08-20T21:38:44.148Z,69.90
2018-08-20T21:41:12.398Z,70.00
2018-08-20T21:43:46.822Z,71.40
2018-08-20T21:46:16.610Z,71.50
2018-08-20T21:48:45.769Z,71.80
2018-08-20T21:51:19.833Z,72.10
2018-08-20T21:53:48.969Z,72.20
2018-08-20T21:56:17.602Z,73.00
2018-08-20T21:58:49.792Z,73.20
2018-08-20T22:01:19.664Z,73.90
2018-08-20T22:03:47.884Z,74.20
2018-08-20T22:06:16.628Z,74.40
2018-08-20T22:08:44.884Z,75.20
2018-08-20T22:11:13.143Z,75.20
2018-08-20T22:13:41.753Z,75.70
2018-08-20T22:16:15.179Z,76.40
2018-08-20T22:18:45.477Z,76.20
2018-08-20T22:21:14.989Z,76.40
2018-08-20T22:23:44.327Z,76.80
2018-08-20T22:26:14.919Z,77.90
2018-08-20T22:28:43.319Z,78.30
2018-08-20T22:31:11.740Z,79.20
2018-08-20T22:33:40.114Z,79.90
2018-08-20T22:36:09.923Z,80.60
2018-08-20T22:38:42.409Z,81.00
2018-08-20T22:41:10.655Z,81.40
2018-08-20T22:43:40.357Z,81.10
2018-08-20T22:46:08.658Z,82.00
2018-08-20T22:48:36.947Z,82.60
2018-08-20T22:51:10.806Z,83.10
2018-08-20T22:53:39.478Z,83.90
2018-08-20T22:56:11.606Z,83.80
2018-08-20T23:01:04.490Z,85.10
2018-08-20T23:03:32.760Z,85.40
2018-08-20T23:06:01.677Z,85.70
2018-08-20T23:08:32.300Z,85.40
2018-08-20T23:11:00.597Z,86.70
2018-08-20T23:13:28.957Z,87.10
2018-08-20T23:15:57.781Z,88.00
2018-08-20T23:18:26.478Z,88.60
2018-08-20T23:20:54.811Z,89.40
2018-08-20T23:23:27.550Z,89.80
2018-08-20T23:26:11.341Z,90.00
2018-08-20T23:28:40.834Z,90.10
2018-08-20T23:31:09.157Z,90.10
2018-08-20T23:33:38.361Z,90.50
2018-08-20T23:36:06.946Z,90.70
2018-08-20T23:38:35.659Z,90.80
2018-08-20T23:41:04.137Z,91.20
2018-08-20T23:43:33.102Z,91.70
2018-08-20T23:46:01.386Z,91.60
2018-08-20T23:48:29.717Z,91.60
2018-08-20T23:51:04.232Z,91.60
2018-08-20T23:53:32.970Z,92.10
2018-08-20T23:56:01.254Z,91.90
2018-08-20T23:58:30.191Z,91.70
